sensor_id;sensor_type;location;lat;lon;timestamp;P1;durP1;ratioP1;P2;durP2;ratioP2
67456;SDS011;54319;52.038;4.640;2022-07-29T00:01:54;3.30;;;0.95;;
67456;SDS011;54319;52.038;4.640;2022-07-29T00:04:20;2.13;;;1.40;;
67456;SDS011;54319;52.038;4.640;2022-07-29T00:06:47;1.40;;;1.13;;
67456;SDS011;54319;52.038;4.640;2022-07-29T00:09:14;2.60;;;1.40;;
67456;SDS011;54319;52.038;4.640;2022-07-29T00:11:41;2.13;;;1.20;;
67456;SDS011;54319;52.038;4.640;2022-07-29T00:14:08;2.90;;;1.13;;
67456;SDS011;54319;52.038;4.640;2022-07-29T00:16:37;2.15;;;1.20;;
67456;SDS011;54319;52.038;4.640;2022-07-29T00:19:03;4.63;;;1.35;;
67456;SDS011;54319;52.038;4.640;2022-07-29T00:21:31;1.70;;;1.10;;
67456;SDS011;54319;52.038;4.640;2022-07-29T00:23:57;1.87;;;1.20;;
67456;SDS011;54319;52.038;4.640;2022-07-29T00:26:24;1.55;;;1.35;;
67456;SDS011;54319;52.038;4.640;2022-07-29T00:28:54;3.00;;;1.45;;
67456;SDS011;54319;52.038;4.640;2022-07-29T00:31:21;2.83;;;1.42;;
67456;SDS011;54319;52.038;4.640;2022-07-29T00:33:49;2.73;;;1.30;;
67456;SDS011;54319;52.038;4.640;2022-07-29T00:36:16;3.80;;;1.17;;
67456;SDS011;54319;52.038;4.640;2022-07-29T00:38:42;4.40;;;1.33;;
67456;SDS011;54319;52.038;4.640;2022-07-29T00:41:10;3.03;;;1.20;;
67456;SDS011;54319;52.038;4.640;2022-07-29T00:43:36;1.98;;;1.20;;
67456;SDS011;54319;52.038;4.640;2022-07-29T00:46:04;1.45;;;1.23;;
67456;SDS011;54319;52.038;4.640;2022-07-29T00:48:31;1.30;;;1.20;;
67456;SDS011;54319;52.038;4.640;2022-07-29T00:50:59;1.97;;;1.40;;
67456;SDS011;54319;52.038;4.640;2022-07-29T00:53:28;4.25;;;1.40;;
67456;SDS011;54319;52.038;4.640;2022-07-29T00:55:56;1.50;;;1.20;;
67456;SDS011;54319;52.038;4.640;2022-07-29T00:58:24;2.95;;;1.58;;
67456;SDS011;54319;52.038;4.640;2022-07-29T01:00:52;3.67;;;1.13;;
67456;SDS011;54319;52.038;4.640;2022-07-29T01:03:19;3.75;;;1.30;;
67456;SDS011;54319;52.038;4.640;2022-07-29T01:05:46;2.63;;;1.60;;
67456;SDS011;54319;52.038;4.640;2022-07-29T01:08:15;2.60;;;1.30;;
67456;SDS011;54319;52.038;4.640;2022-07-29T01:10:42;6.03;;;1.50;;
67456;SDS011;54319;52.038;4.640;2022-07-29T01:13:12;2.55;;;1.25;;
67456;SDS011;54319;52.038;4.640;2022-07-29T01:15:41;2.40;;;1.40;;
67456;SDS011;54319;52.038;4.640;2022-07-29T01:18:13;1.73;;;1.25;;
67456;SDS011;54319;52.038;4.640;2022-07-29T01:20:49;2.20;;;1.30;;
67456;SDS011;54319;52.038;4.640;2022-07-29T01:23:40;2.45;;;1.30;;
67456;SDS011;54319;52.038;4.640;2022-07-29T01:26:28;2.70;;;1.25;;
67456;SDS011;54319;52.038;4.640;2022-07-29T01:29:09;3.33;;;1.40;;
67456;SDS011;54319;52.038;4.640;2022-07-29T01:31:42;2.42;;;1.20;;
67456;SDS011;54319;52.038;4.640;2022-07-29T01:34:15;4.47;;;1.80;;
67456;SDS011;54319;52.038;4.640;2022-07-29T01:36:48;2.17;;;1.42;;
67456;SDS011;54319;52.038;4.640;2022-07-29T01:39:22;1.60;;;1.50;;
67456;SDS011;54319;52.038;4.640;2022-07-29T01:41:55;2.25;;;1.30;;
67456;SDS011;54319;52.038;4.640;2022-07-29T01:44:31;3.13;;;1.45;;
67456;SDS011;54319;52.038;4.640;2022-07-29T01:47:05;2.85;;;1.23;;
67456;SDS011;54319;52.038;4.640;2022-07-29T01:49:39;1.88;;;1.40;;
67456;SDS011;54319;52.038;4.640;2022-07-29T01:52:13;3.03;;;1.48;;
67456;SDS011;54319;52.038;4.640;2022-07-29T01:54:47;1.58;;;1.25;;
67456;SDS011;54319;52.038;4.640;2022-07-29T01:57:19;2.17;;;1.50;;
67456;SDS011;54319;52.038;4.640;2022-07-29T01:59:51;3.90;;;1.50;;
67456;SDS011;54319;52.038;4.640;2022-07-29T02:02:20;3.67;;;1.33;;
67456;SDS011;54319;52.038;4.640;2022-07-29T02:04:49;2.75;;;1.42;;
67456;SDS011;54319;52.038;4.640;2022-07-29T02:07:18;3.75;;;1.70;;
67456;SDS011;54319;52.038;4.640;2022-07-29T02:09:47;3.50;;;1.60;;
67456;SDS011;54319;52.038;4.640;2022-07-29T02:12:16;4.50;;;1.42;;
67456;SDS011;54319;52.038;4.640;2022-07-29T02:14:45;6.72;;;1.77;;
67456;SDS011;54319;52.038;4.640;2022-07-29T02:17:21;1.52;;;1.42;;
67456;SDS011;54319;52.038;4.640;2022-07-29T02:19:51;2.15;;;1.52;;
67456;SDS011;54319;52.038;4.640;2022-07-29T02:22:23;3.25;;;1.27;;
67456;SDS011;54319;52.038;4.640;2022-07-29T02:24:51;2.00;;;1.30;;
67456;SDS011;54319;52.038;4.640;2022-07-29T02:27:20;3.08;;;1.42;;
67456;SDS011;54319;52.038;4.640;2022-07-29T02:29:48;1.60;;;1.50;;
67456;SDS011;54319;52.038;4.640;2022-07-29T02:32:19;3.22;;;1.58;;
67456;SDS011;54319;52.038;4.640;2022-07-29T02:34:48;4.32;;;1.67;;
67456;SDS011;54319;52.038;4.640;2022-07-29T02:37:16;4.80;;;1.70;;
67456;SDS011;54319;52.038;4.640;2022-07-29T02:39:44;4.30;;;1.52;;
67456;SDS011;54319;52.038;4.640;2022-07-29T02:42:15;5.15;;;1.67;;
67456;SDS011;54319;52.038;4.640;2022-07-29T02:44:44;2.50;;;1.30;;
67456;SDS011;54319;52.038;4.640;2022-07-29T02:49:46;2.13;;;1.50;;
67456;SDS011;54319;52.038;4.640;2022-07-29T02:52:19;1.80;;;1.60;;
67456;SDS011;54319;52.038;4.640;2022-07-29T02:54:51;1.60;;;1.48;;
67456;SDS011;54319;52.038;4.640;2022-07-29T02:57:27;4.22;;;1.60;;
67456;SDS011;54319;52.038;4.640;2022-07-29T02:59:58;3.75;;;1.83;;
67456;SDS011;54319;52.038;4.640;2022-07-29T03:02:33;4.25;;;1.30;;
67456;SDS011;54319;52.038;4.640;2022-07-29T03:05:04;2.33;;;1.60;;
67456;SDS011;54319;52.038;4.640;2022-07-29T03:07:34;5.82;;;1.60;;
67456;SDS011;54319;52.038;4.640;2022-07-29T03:10:02;5.47;;;1.75;;
67456;SDS011;54319;52.038;4.640;2022-07-29T03:12:31;3.67;;;1.73;;
67456;SDS011;54319;52.038;4.640;2022-07-29T03:14:58;2.88;;;1.95;;
67456;SDS011;54319;52.038;4.640;2022-07-29T03:17:27;1.95;;;1.60;;
67456;SDS011;54319;52.038;4.640;2022-07-29T03:19:56;2.15;;;1.55;;
67456;SDS011;54319;52.038;4.640;2022-07-29T03:22:25;4.47;;;1.75;;
67456;SDS011;54319;52.038;4.640;2022-07-29T03:24:53;1.77;;;1.60;;
67456;SDS011;54319;52.038;4.640;2022-07-29T03:27:20;3.83;;;1.92;;
67456;SDS011;54319;52.038;4.640;2022-07-29T03:29:47;3.55;;;1.85;;
67456;SDS011;54319;52.038;4.640;2022-07-29T03:32:14;2.83;;;1.83;;
67456;SDS011;54319;52.038;4.640;2022-07-29T03:34:41;2.20;;;1.75;;
67456;SDS011;54319;52.038;4.640;2022-07-29T03:37:08;3.10;;;1.75;;
67456;SDS011;54319;52.038;4.640;2022-07-29T03:39:36;3.60;;;1.90;;
67456;SDS011;54319;52.038;4.640;2022-07-29T03:42:08;2.33;;;1.90;;
67456;SDS011;54319;52.038;4.640;2022-07-29T03:44:38;3.75;;;1.90;;
67456;SDS011;54319;52.038;4.640;2022-07-29T03:47:08;2.42;;;1.80;;
67456;SDS011;54319;52.038;4.640;2022-07-29T03:49:37;2.25;;;1.90;;
67456;SDS011;54319;52.038;4.640;2022-07-29T03:52:05;5.72;;;2.20;;
67456;SDS011;54319;52.038;4.640;2022-07-29T03:54:32;4.75;;;2.03;;
67456;SDS011;54319;52.038;4.640;2022-07-29T03:59:27;2.47;;;2.03;;
67456;SDS011;54319;52.038;4.640;2022-07-29T04:01:58;4.00;;;1.90;;
67456;SDS011;54319;52.038;4.640;2022-07-29T04:04:27;3.80;;;2.10;;
67456;SDS011;54319;52.038;4.640;2022-07-29T04:06:54;2.53;;;1.98;;
67456;SDS011;54319;52.038;4.640;2022-07-29T04:09:20;4.45;;;2.03;;
67456;SDS011;54319;52.038;4.640;2022-07-29T04:11:47;2.40;;;1.90;;
67456;SDS011;54319;52.038;4.640;2022-07-29T04:14:16;4.53;;;2.30;;
67456;SDS011;54319;52.038;4.640;2022-07-29T04:16:43;3.38;;;2.00;;
67456;SDS011;54319;52.038;4.640;2022-07-29T04:19:10;4.33;;;2.07;;
67456;SDS011;54319;52.038;4.640;2022-07-29T04:21:37;5.13;;;2.13;;
67456;SDS011;54319;52.038;4.640;2022-07-29T04:24:04;2.15;;;1.70;;
67456;SDS011;54319;52.038;4.640;2022-07-29T04:26:31;4.53;;;2.10;;
67456;SDS011;54319;52.038;4.640;2022-07-29T04:28:58;3.10;;;1.75;;
67456;SDS011;54319;52.038;4.640;2022-07-29T04:31:27;3.97;;;2.30;;
67456;SDS011;54319;52.038;4.640;2022-07-29T04:33:54;2.85;;;1.95;;
67456;SDS011;54319;52.038;4.640;2022-07-29T04:38:49;4.90;;;2.50;;
67456;SDS011;54319;52.038;4.640;2022-07-29T04:41:16;4.85;;;2.13;;
67456;SDS011;54319;52.038;4.640;2022-07-29T04:43:42;3.00;;;1.90;;
67456;SDS011;54319;52.038;4.640;2022-07-29T04:46:09;3.78;;;2.10;;
67456;SDS011;54319;52.038;4.640;2022-07-29T04:48:37;4.20;;;2.10;;
67456;SDS011;54319;52.038;4.640;2022-07-29T04:51:04;2.85;;;2.20;;
67456;SDS011;54319;52.038;4.640;2022-07-29T04:53:31;3.13;;;2.00;;
67456;SDS011;54319;52.038;4.640;2022-07-29T04:55:57;2.80;;;1.97;;
67456;SDS011;54319;52.038;4.640;2022-07-29T04:58:24;3.58;;;2.13;;
67456;SDS011;54319;52.038;4.640;2022-07-29T05:00:51;2.70;;;1.90;;
67456;SDS011;54319;52.038;4.640;2022-07-29T05:03:18;2.60;;;1.95;;
67456;SDS011;54319;52.038;4.640;2022-07-29T05:05:46;4.43;;;2.17;;
67456;SDS011;54319;52.038;4.640;2022-07-29T05:08:13;2.97;;;1.90;;
67456;SDS011;54319;52.038;4.640;2022-07-29T05:10:40;4.67;;;1.90;;
67456;SDS011;54319;52.038;4.640;2022-07-29T05:13:07;4.40;;;2.30;;
67456;SDS011;54319;52.038;4.640;2022-07-29T05:15:34;2.30;;;1.93;;
67456;SDS011;54319;52.038;4.640;2022-07-29T05:18:02;3.97;;;1.90;;
67456;SDS011;54319;52.038;4.640;2022-07-29T05:20:29;2.78;;;1.95;;
67456;SDS011;54319;52.038;4.640;2022-07-29T05:23:00;3.05;;;1.92;;
67456;SDS011;54319;52.038;4.640;2022-07-29T05:25:28;2.65;;;2.10;;
67456;SDS011;54319;52.038;4.640;2022-07-29T05:27:56;2.88;;;1.88;;
67456;SDS011;54319;52.038;4.640;2022-07-29T05:30:23;2.95;;;1.63;;
67456;SDS011;54319;52.038;4.640;2022-07-29T05:32:50;2.70;;;1.95;;
67456;SDS011;54319;52.038;4.640;2022-07-29T05:35:16;3.63;;;1.90;;
67456;SDS011;54319;52.038;4.640;2022-07-29T05:37:44;4.13;;;1.90;;
67456;SDS011;54319;52.038;4.640;2022-07-29T05:40:12;3.27;;;2.07;;
67456;SDS011;54319;52.038;4.640;2022-07-29T05:42:39;2.78;;;2.03;;
67456;SDS011;54319;52.038;4.640;2022-07-29T05:45:05;3.13;;;1.93;;
67456;SDS011;54319;52.038;4.640;2022-07-29T05:47:33;2.33;;;1.85;;
67456;SDS011;54319;52.038;4.640;2022-07-29T05:50:00;2.93;;;1.97;;
67456;SDS011;54319;52.038;4.640;2022-07-29T05:52:27;2.72;;;1.95;;
67456;SDS011;54319;52.038;4.640;2022-07-29T05:54:53;3.23;;;2.03;;
67456;SDS011;54319;52.038;4.640;2022-07-29T05:59:49;3.03;;;1.70;;
67456;SDS011;54319;52.038;4.640;2022-07-29T06:02:17;1.95;;;1.60;;
67456;SDS011;54319;52.038;4.640;2022-07-29T06:04:44;4.75;;;1.80;;
67456;SDS011;54319;52.038;4.640;2022-07-29T06:07:11;5.72;;;1.70;;
67456;SDS011;54319;52.038;4.640;2022-07-29T06:09:38;3.83;;;1.80;;
67456;SDS011;54319;52.038;4.640;2022-07-29T06:12:05;2.65;;;1.90;;
67456;SDS011;54319;52.038;4.640;2022-07-29T06:14:33;3.45;;;1.65;;
67456;SDS011;54319;52.038;4.640;2022-07-29T06:17:02;5.22;;;1.88;;
67456;SDS011;54319;52.038;4.640;2022-07-29T06:19:29;2.20;;;1.58;;
67456;SDS011;54319;52.038;4.640;2022-07-29T06:21:56;3.05;;;1.70;;
67456;SDS011;54319;52.038;4.640;2022-07-29T06:24:24;2.93;;;1.60;;
67456;SDS011;54319;52.038;4.640;2022-07-29T06:26:52;2.33;;;1.80;;
67456;SDS011;54319;52.038;4.640;2022-07-29T06:29:18;6.68;;;1.95;;
67456;SDS011;54319;52.038;4.640;2022-07-29T06:31:47;3.45;;;1.88;;
67456;SDS011;54319;52.038;4.640;2022-07-29T06:34:13;3.25;;;1.55;;
67456;SDS011;54319;52.038;4.640;2022-07-29T06:36:41;3.20;;;1.67;;
67456;SDS011;54319;52.038;4.640;2022-07-29T06:39:08;6.03;;;1.80;;
67456;SDS011;54319;52.038;4.640;2022-07-29T06:44:01;2.88;;;1.55;;
67456;SDS011;54319;52.038;4.640;2022-07-29T06:46:29;3.33;;;1.85;;
67456;SDS011;54319;52.038;4.640;2022-07-29T06:48:57;5.88;;;1.75;;
67456;SDS011;54319;52.038;4.640;2022-07-29T06:51:26;4.13;;;1.50;;
67456;SDS011;54319;52.038;4.640;2022-07-29T06:53:53;4.68;;;2.03;;
67456;SDS011;54319;52.038;4.640;2022-07-29T06:56:22;8.10;;;1.90;;
67456;SDS011;54319;52.038;4.640;2022-07-29T06:58:49;3.03;;;1.70;;
67456;SDS011;54319;52.038;4.640;2022-07-29T07:01:16;4.05;;;1.90;;
67456;SDS011;54319;52.038;4.640;2022-07-29T07:03:42;4.43;;;1.83;;
67456;SDS011;54319;52.038;4.640;2022-07-29T07:08:37;2.97;;;1.85;;
67456;SDS011;54319;52.038;4.640;2022-07-29T07:11:04;3.10;;;1.70;;
67456;SDS011;54319;52.038;4.640;2022-07-29T07:13:32;5.20;;;1.63;;
67456;SDS011;54319;52.038;4.640;2022-07-29T07:18:27;4.28;;;1.88;;
67456;SDS011;54319;52.038;4.640;2022-07-29T07:20:54;3.72;;;1.60;;
67456;SDS011;54319;52.038;4.640;2022-07-29T07:23:23;2.60;;;1.50;;
67456;SDS011;54319;52.038;4.640;2022-07-29T07:25:50;2.63;;;2.08;;
67456;SDS011;54319;52.038;4.640;2022-07-29T07:30:44;1.50;;;1.40;;
67456;SDS011;54319;52.038;4.640;2022-07-29T07:35:38;4.93;;;1.77;;
67456;SDS011;54319;52.038;4.640;2022-07-29T07:38:05;3.17;;;1.80;;
67456;SDS011;54319;52.038;4.640;2022-07-29T07:40:33;3.60;;;1.80;;
67456;SDS011;54319;52.038;4.640;2022-07-29T07:43:00;4.35;;;1.80;;
67456;SDS011;54319;52.038;4.640;2022-07-29T07:45:27;2.63;;;1.50;;
67456;SDS011;54319;52.038;4.640;2022-07-29T07:47:55;2.67;;;1.58;;
67456;SDS011;54319;52.038;4.640;2022-07-29T07:50:21;1.98;;;1.52;;
67456;SDS011;54319;52.038;4.640;2022-07-29T07:52:49;4.50;;;1.60;;
67456;SDS011;54319;52.038;4.640;2022-07-29T07:55:17;2.65;;;1.55;;
67456;SDS011;54319;52.038;4.640;2022-07-29T07:57:46;2.90;;;1.70;;
67456;SDS011;54319;52.038;4.640;2022-07-29T08:00:14;2.67;;;1.73;;
67456;SDS011;54319;52.038;4.640;2022-07-29T08:02:42;4.47;;;2.03;;
67456;SDS011;54319;52.038;4.640;2022-07-29T08:05:10;3.35;;;2.05;;
67456;SDS011;54319;52.038;4.640;2022-07-29T08:07:41;2.45;;;1.70;;
67456;SDS011;54319;52.038;4.640;2022-07-29T08:10:09;4.50;;;2.00;;
67456;SDS011;54319;52.038;4.640;2022-07-29T08:15:04;3.00;;;1.50;;
67456;SDS011;54319;52.038;4.640;2022-07-29T08:17:32;4.47;;;1.58;;
67456;SDS011;54319;52.038;4.640;2022-07-29T08:19:59;3.63;;;1.70;;
67456;SDS011;54319;52.038;4.640;2022-07-29T08:22:26;5.07;;;1.92;;
67456;SDS011;54319;52.038;4.640;2022-07-29T08:24:53;2.97;;;1.80;;
67456;SDS011;54319;52.038;4.640;2022-07-29T08:27:21;3.05;;;1.67;;
67456;SDS011;54319;52.038;4.640;2022-07-29T08:29:48;6.13;;;1.98;;
67456;SDS011;54319;52.038;4.640;2022-07-29T08:32:16;3.05;;;1.85;;
67456;SDS011;54319;52.038;4.640;2022-07-29T08:34:43;5.22;;;1.65;;
67456;SDS011;54319;52.038;4.640;2022-07-29T08:37:11;3.30;;;1.80;;
67456;SDS011;54319;52.038;4.640;2022-07-29T08:39:38;2.85;;;1.33;;
67456;SDS011;54319;52.038;4.640;2022-07-29T08:42:06;5.20;;;1.60;;
67456;SDS011;54319;52.038;4.640;2022-07-29T08:44:32;2.33;;;1.73;;
67456;SDS011;54319;52.038;4.640;2022-07-29T08:47:00;3.53;;;1.75;;
67456;SDS011;54319;52.038;4.640;2022-07-29T08:49:29;2.28;;;1.70;;
67456;SDS011;54319;52.038;4.640;2022-07-29T08:51:57;2.15;;;1.40;;
67456;SDS011;54319;52.038;4.640;2022-07-29T08:54:26;4.30;;;1.77;;
67456;SDS011;54319;52.038;4.640;2022-07-29T08:56:54;3.95;;;1.63;;
67456;SDS011;54319;52.038;4.640;2022-07-29T08:59:22;2.35;;;1.60;;
67456;SDS011;54319;52.038;4.640;2022-07-29T09:01:53;3.80;;;1.73;;
67456;SDS011;54319;52.038;4.640;2022-07-29T09:04:20;5.15;;;1.77;;
67456;SDS011;54319;52.038;4.640;2022-07-29T09:06:51;3.22;;;1.90;;
67456;SDS011;54319;52.038;4.640;2022-07-29T09:09:20;3.00;;;1.83;;
67456;SDS011;54319;52.038;4.640;2022-07-29T09:11:48;3.50;;;1.73;;
67456;SDS011;54319;52.038;4.640;2022-07-29T09:14:14;3.58;;;1.77;;
67456;SDS011;54319;52.038;4.640;2022-07-29T09:19:19;4.90;;;1.90;;
67456;SDS011;54319;52.038;4.640;2022-07-29T09:21:48;3.50;;;1.80;;
67456;SDS011;54319;52.038;4.640;2022-07-29T09:24:25;5.32;;;1.95;;
67456;SDS011;54319;52.038;4.640;2022-07-29T09:26:54;4.40;;;1.70;;
67456;SDS011;54319;52.038;4.640;2022-07-29T09:29:21;4.72;;;1.80;;
67456;SDS011;54319;52.038;4.640;2022-07-29T09:31:50;2.92;;;1.67;;
67456;SDS011;54319;52.038;4.640;2022-07-29T09:34:21;3.35;;;1.77;;
67456;SDS011;54319;52.038;4.640;2022-07-29T09:36:50;3.50;;;1.60;;
67456;SDS011;54319;52.038;4.640;2022-07-29T09:39:28;5.13;;;1.80;;
67456;SDS011;54319;52.038;4.640;2022-07-29T09:41:57;3.35;;;1.60;;
67456;SDS011;54319;52.038;4.640;2022-07-29T09:44:25;5.55;;;2.17;;
67456;SDS011;54319;52.038;4.640;2022-07-29T09:46:56;4.10;;;1.92;;
67456;SDS011;54319;52.038;4.640;2022-07-29T09:49:30;4.22;;;1.60;;
67456;SDS011;54319;52.038;4.640;2022-07-29T09:51:59;3.42;;;1.50;;
67456;SDS011;54319;52.038;4.640;2022-07-29T09:54:28;3.05;;;1.63;;
67456;SDS011;54319;52.038;4.640;2022-07-29T09:57:02;4.07;;;1.80;;
67456;SDS011;54319;52.038;4.640;2022-07-29T09:59:28;3.15;;;1.70;;
67456;SDS011;54319;52.038;4.640;2022-07-29T10:01:56;6.47;;;1.70;;
67456;SDS011;54319;52.038;4.640;2022-07-29T10:04:23;3.97;;;1.63;;
67456;SDS011;54319;52.038;4.640;2022-07-29T10:06:56;3.70;;;1.48;;
67456;SDS011;54319;52.038;4.640;2022-07-29T10:09:25;5.63;;;1.70;;
67456;SDS011;54319;52.038;4.640;2022-07-29T10:12:04;3.88;;;1.73;;
67456;SDS011;54319;52.038;4.640;2022-07-29T10:14:33;5.95;;;1.60;;
67456;SDS011;54319;52.038;4.640;2022-07-29T10:17:01;4.25;;;1.55;;
67456;SDS011;54319;52.038;4.640;2022-07-29T10:19:28;2.70;;;1.50;;
67456;SDS011;54319;52.038;4.640;2022-07-29T10:21:57;2.95;;;1.33;;
67456;SDS011;54319;52.038;4.640;2022-07-29T10:24:24;3.42;;;1.60;;
67456;SDS011;54319;52.038;4.640;2022-07-29T10:26:54;6.80;;;1.90;;
67456;SDS011;54319;52.038;4.640;2022-07-29T10:29:23;5.63;;;1.70;;
67456;SDS011;54319;52.038;4.640;2022-07-29T10:31:52;3.72;;;1.90;;
67456;SDS011;54319;52.038;4.640;2022-07-29T10:34:34;2.72;;;1.65;;
67456;SDS011;54319;52.038;4.640;2022-07-29T10:37:14;5.55;;;1.30;;
67456;SDS011;54319;52.038;4.640;2022-07-29T10:39:55;3.83;;;1.60;;
67456;SDS011;54319;52.038;4.640;2022-07-29T10:42:48;4.82;;;1.40;;
67456;SDS011;54319;52.038;4.640;2022-07-29T10:45:18;3.33;;;1.23;;
67456;SDS011;54319;52.038;4.640;2022-07-29T10:47:45;6.60;;;2.03;;
67456;SDS011;54319;52.038;4.640;2022-07-29T10:50:12;5.03;;;1.60;;
67456;SDS011;54319;52.038;4.640;2022-07-29T10:52:51;4.55;;;1.88;;
67456;SDS011;54319;52.038;4.640;2022-07-29T10:55:30;2.22;;;1.60;;
67456;SDS011;54319;52.038;4.640;2022-07-29T10:58:14;3.67;;;1.80;;
67456;SDS011;54319;52.038;4.640;2022-07-29T11:00:43;6.70;;;1.58;;
67456;SDS011;54319;52.038;4.640;2022-07-29T11:06:08;5.30;;;1.67;;
67456;SDS011;54319;52.038;4.640;2022-07-29T11:08:36;4.43;;;1.50;;
67456;SDS011;54319;52.038;4.640;2022-07-29T11:14:05;7.47;;;1.33;;
67456;SDS011;54319;52.038;4.640;2022-07-29T11:19:28;2.80;;;1.38;;
67456;SDS011;54319;52.038;4.640;2022-07-29T11:21:56;5.28;;;1.42;;
67456;SDS011;54319;52.038;4.640;2022-07-29T11:24:24;3.13;;;1.40;;
67456;SDS011;54319;52.038;4.640;2022-07-29T11:27:09;6.78;;;1.65;;
67456;SDS011;54319;52.038;4.640;2022-07-29T11:29:47;2.83;;;1.50;;
67456;SDS011;54319;52.038;4.640;2022-07-29T11:32:20;4.07;;;1.60;;
67456;SDS011;54319;52.038;4.640;2022-07-29T11:34:49;1.70;;;1.17;;
67456;SDS011;54319;52.038;4.640;2022-07-29T11:37:36;2.55;;;1.50;;
67456;SDS011;54319;52.038;4.640;2022-07-29T11:42:48;3.47;;;1.20;;
67456;SDS011;54319;52.038;4.640;2022-07-29T11:45:17;5.03;;;1.60;;
67456;SDS011;54319;52.038;4.640;2022-07-29T11:50:28;6.07;;;1.65;;
67456;SDS011;54319;52.038;4.640;2022-07-29T11:53:01;3.97;;;1.73;;
67456;SDS011;54319;52.038;4.640;2022-07-29T11:55:29;5.30;;;1.58;;
67456;SDS011;54319;52.038;4.640;2022-07-29T11:58:00;2.20;;;1.10;;
67456;SDS011;54319;52.038;4.640;2022-07-29T12:00:29;3.47;;;1.40;;
67456;SDS011;54319;52.038;4.640;2022-07-29T12:02:59;8.43;;;2.95;;
67456;SDS011;54319;52.038;4.640;2022-07-29T12:05:34;4.22;;;1.50;;
67456;SDS011;54319;52.038;4.640;2022-07-29T12:08:04;4.93;;;1.50;;
67456;SDS011;54319;52.038;4.640;2022-07-29T12:10:32;3.08;;;1.15;;
67456;SDS011;54319;52.038;4.640;2022-07-29T12:13:00;3.65;;;1.00;;
67456;SDS011;54319;52.038;4.640;2022-07-29T12:17:53;2.58;;;1.30;;
67456;SDS011;54319;52.038;4.640;2022-07-29T12:20:25;6.30;;;1.35;;
67456;SDS011;54319;52.038;4.640;2022-07-29T12:22:54;4.80;;;1.60;;
67456;SDS011;54319;52.038;4.640;2022-07-29T12:25:21;2.58;;;1.55;;
67456;SDS011;54319;52.038;4.640;2022-07-29T12:27:59;2.88;;;1.13;;
67456;SDS011;54319;52.038;4.640;2022-07-29T12:30:39;2.20;;;1.13;;
67456;SDS011;54319;52.038;4.640;2022-07-29T12:33:10;2.75;;;1.20;;
67456;SDS011;54319;52.038;4.640;2022-07-29T12:35:49;5.63;;;1.48;;
67456;SDS011;54319;52.038;4.640;2022-07-29T12:38:20;2.55;;;1.40;;
67456;SDS011;54319;52.038;4.640;2022-07-29T12:40:47;4.93;;;1.40;;
67456;SDS011;54319;52.038;4.640;2022-07-29T12:43:17;3.30;;;1.63;;
67456;SDS011;54319;52.038;4.640;2022-07-29T12:45:45;4.70;;;1.70;;
67456;SDS011;54319;52.038;4.640;2022-07-29T12:48:15;5.03;;;1.75;;
67456;SDS011;54319;52.038;4.640;2022-07-29T12:50:54;4.43;;;2.08;;
67456;SDS011;54319;52.038;4.640;2022-07-29T12:53:23;3.67;;;1.60;;
67456;SDS011;54319;52.038;4.640;2022-07-29T12:55:52;7.82;;;1.80;;
67456;SDS011;54319;52.038;4.640;2022-07-29T12:58:30;9.48;;;1.90;;
67456;SDS011;54319;52.038;4.640;2022-07-29T13:01:01;7.68;;;1.67;;
67456;SDS011;54319;52.038;4.640;2022-07-29T13:03:41;2.65;;;1.60;;
67456;SDS011;54319;52.038;4.640;2022-07-29T13:06:29;5.28;;;1.60;;
67456;SDS011;54319;52.038;4.640;2022-07-29T13:09:00;4.65;;;2.00;;
67456;SDS011;54319;52.038;4.640;2022-07-29T13:11:32;4.38;;;1.42;;
67456;SDS011;54319;52.038;4.640;2022-07-29T13:14:00;5.70;;;1.80;;
67456;SDS011;54319;52.038;4.640;2022-07-29T13:16:27;5.70;;;1.60;;
67456;SDS011;54319;52.038;4.640;2022-07-29T13:19:04;4.95;;;1.65;;
67456;SDS011;54319;52.038;4.640;2022-07-29T13:21:33;4.47;;;1.75;;
67456;SDS011;54319;52.038;4.640;2022-07-29T13:24:01;5.20;;;1.65;;
67456;SDS011;54319;52.038;4.640;2022-07-29T13:26:27;7.97;;;1.73;;
67456;SDS011;54319;52.038;4.640;2022-07-29T13:28:55;3.22;;;1.50;;
67456;SDS011;54319;52.038;4.640;2022-07-29T13:31:21;4.65;;;1.50;;
67456;SDS011;54319;52.038;4.640;2022-07-29T13:33:49;4.15;;;1.50;;
67456;SDS011;54319;52.038;4.640;2022-07-29T13:36:15;4.15;;;1.50;;
67456;SDS011;54319;52.038;4.640;2022-07-29T13:38:44;1.75;;;1.38;;
67456;SDS011;54319;52.038;4.640;2022-07-29T13:41:11;3.38;;;1.50;;
67456;SDS011;54319;52.038;4.640;2022-07-29T13:43:38;3.35;;;1.58;;
67456;SDS011;54319;52.038;4.640;2022-07-29T13:46:04;3.22;;;1.48;;
67456;SDS011;54319;52.038;4.640;2022-07-29T13:48:31;2.05;;;1.42;;
67456;SDS011;54319;52.038;4.640;2022-07-29T13:50:58;3.42;;;1.40;;
67456;SDS011;54319;52.038;4.640;2022-07-29T13:53:25;3.50;;;1.40;;
67456;SDS011;54319;52.038;4.640;2022-07-29T13:55:55;4.35;;;1.20;;
67456;SDS011;54319;52.038;4.640;2022-07-29T13:58:22;5.22;;;1.48;;
67456;SDS011;54319;52.038;4.640;2022-07-29T14:03:15;3.17;;;1.52;;
67456;SDS011;54319;52.038;4.640;2022-07-29T14:08:09;2.45;;;1.45;;
67456;SDS011;54319;52.038;4.640;2022-07-29T14:10:36;4.75;;;1.60;;
67456;SDS011;54319;52.038;4.640;2022-07-29T14:13:05;4.30;;;1.40;;
67456;SDS011;54319;52.038;4.640;2022-07-29T14:15:31;4.38;;;1.70;;
67456;SDS011;54319;52.038;4.640;2022-07-29T14:17:58;4.40;;;1.75;;
67456;SDS011;54319;52.038;4.640;2022-07-29T14:22:53;8.57;;;1.40;;
67456;SDS011;54319;52.038;4.640;2022-07-29T14:25:20;10.57;;;1.60;;
67456;SDS011;54319;52.038;4.640;2022-07-29T14:27:47;3.85;;;1.38;;
67456;SDS011;54319;52.038;4.640;2022-07-29T14:30:15;5.45;;;1.70;;
67456;SDS011;54319;52.038;4.640;2022-07-29T14:32:42;5.18;;;1.50;;
67456;SDS011;54319;52.038;4.640;2022-07-29T14:35:08;4.88;;;1.33;;
67456;SDS011;54319;52.038;4.640;2022-07-29T14:40:02;4.95;;;1.50;;
67456;SDS011;54319;52.038;4.640;2022-07-29T14:42:30;1.95;;;1.10;;
67456;SDS011;54319;52.038;4.640;2022-07-29T14:44:57;2.45;;;1.20;;
67456;SDS011;54319;52.038;4.640;2022-07-29T14:47:25;4.10;;;1.10;;
67456;SDS011;54319;52.038;4.640;2022-07-29T14:49:53;3.60;;;1.33;;
67456;SDS011;54319;52.038;4.640;2022-07-29T14:52:20;2.22;;;1.20;;
67456;SDS011;54319;52.038;4.640;2022-07-29T14:54:47;4.10;;;1.10;;
67456;SDS011;54319;52.038;4.640;2022-07-29T14:57:14;5.40;;;1.38;;
67456;SDS011;54319;52.038;4.640;2022-07-29T14:59:41;1.83;;;1.40;;
67456;SDS011;54319;52.038;4.640;2022-07-29T15:02:08;2.95;;;1.20;;
67456;SDS011;54319;52.038;4.640;2022-07-29T15:04:37;4.40;;;1.60;;
67456;SDS011;54319;52.038;4.640;2022-07-29T15:07:04;4.43;;;1.58;;
67456;SDS011;54319;52.038;4.640;2022-07-29T15:09:31;4.10;;;1.40;;
67456;SDS011;54319;52.038;4.640;2022-07-29T15:11:58;2.08;;;1.23;;
67456;SDS011;54319;52.038;4.640;2022-07-29T15:14:25;3.40;;;1.30;;
67456;SDS011;54319;52.038;4.640;2022-07-29T15:16:51;1.77;;;1.20;;
67456;SDS011;54319;52.038;4.640;2022-07-29T15:19:18;7.07;;;1.40;;
67456;SDS011;54319;52.038;4.640;2022-07-29T15:24:14;7.10;;;1.50;;
67456;SDS011;54319;52.038;4.640;2022-07-29T15:29:08;3.05;;;1.10;;
67456;SDS011;54319;52.038;4.640;2022-07-29T15:31:35;1.58;;;1.00;;
67456;SDS011;54319;52.038;4.640;2022-07-29T15:34:02;7.95;;;1.10;;
67456;SDS011;54319;52.038;4.640;2022-07-29T15:36:28;4.38;;;1.20;;
67456;SDS011;54319;52.038;4.640;2022-07-29T15:38:58;2.53;;;1.10;;
67456;SDS011;54319;52.038;4.640;2022-07-29T15:41:24;4.65;;;1.30;;
67456;SDS011;54319;52.038;4.640;2022-07-29T15:43:52;4.65;;;1.17;;
67456;SDS011;54319;52.038;4.640;2022-07-29T15:49:15;3.13;;;1.20;;
67456;SDS011;54319;52.038;4.640;2022-07-29T15:51:41;1.98;;;1.52;;
67456;SDS011;54319;52.038;4.640;2022-07-29T15:54:10;4.93;;;1.35;;
67456;SDS011;54319;52.038;4.640;2022-07-29T15:56:37;7.28;;;1.33;;
67456;SDS011;54319;52.038;4.640;2022-07-29T15:59:04;3.42;;;1.05;;
67456;SDS011;54319;52.038;4.640;2022-07-29T16:01:31;3.80;;;1.90;;